createdAt,value
2022-09-26T00:02:32.492Z,13.99
2022-09-26T00:08:10.639Z,13.94
2022-09-26T00:13:42.302Z,13.89
2022-09-26T00:19:14.143Z,13.76
2022-09-26T00:24:45.781Z,13.73
2022-09-26T00:30:17.485Z,13.65
2022-09-26T00:35:49.211Z,13.45
2022-09-26T00:41:20.939Z,13.3
2022-09-26T00:46:52.651Z,13.24
2022-09-26T00:52:24.366Z,13.09
2022-09-26T00:57:56.150Z,13.03
2022-09-26T01:03:27.974Z,12.94
2022-09-26T01:09:05.988Z,12.88
2022-09-26T01:14:37.685Z,12.75
2022-09-26T01:20:09.441Z,12.61
2022-09-26T01:25:41.170Z,12.64
2022-09-26T01:31:12.927Z,12.6
2022-09-26T01:36:44.590Z,12.49
2022-09-26T01:42:16.320Z,12.42
2022-09-26T01:47:48.071Z,12.42
2022-09-26T01:53:19.958Z,12.43
2022-09-26T01:58:51.413Z,12.45
2022-09-26T02:04:23.195Z,12.47
2022-09-26T02:09:59.364Z,12.58
2022-09-26T02:15:31.069Z,12.64
2022-09-26T02:21:02.774Z,12.65
2022-09-26T02:26:34.481Z,12.56
2022-09-26T02:32:06.239Z,12.55
2022-09-26T02:37:37.933Z,12.52
2022-09-26T02:43:09.838Z,12.49
2022-09-26T02:48:41.354Z,12.53
2022-09-26T02:54:13.134Z,12.47
2022-09-26T02:59:44.833Z,12.48
2022-09-26T03:05:16.580Z,12.46
2022-09-26T03:10:52.709Z,12.51
2022-09-26T03:16:24.439Z,12.53
2022-09-26T03:21:56.114Z,12.51
2022-09-26T03:27:27.838Z,12.54
2022-09-26T03:32:59.618Z,12.51
2022-09-26T03:38:31.305Z,12.42
2022-09-26T03:44:02.969Z,12.47
2022-09-26T03:49:34.713Z,12.46
2022-09-26T03:55:06.478Z,12.29
2022-09-26T04:00:38.267Z,12.41
2022-09-26T04:06:09.890Z,12.36
2022-09-26T04:11:46.018Z,12.36
2022-09-26T04:17:17.724Z,12.26
2022-09-26T04:22:49.457Z,12.24
2022-09-26T04:28:22.220Z,12.15
2022-09-26T04:33:53.973Z,12.05
2022-09-26T04:39:25.740Z,12.01
2022-09-26T04:44:57.395Z,11.93
2022-09-26T04:50:29.253Z,11.99
2022-09-26T04:56:00.861Z,11.91
2022-09-26T05:01:32.631Z,11.82
2022-09-26T05:07:04.307Z,11.77
2022-09-26T05:12:40.448Z,11.66
2022-09-26T05:18:12.166Z,11.63
2022-09-26T05:23:44.941Z,11.61
2022-09-26T05:29:15.733Z,11.66
2022-09-26T05:34:47.305Z,11.68
2022-09-26T05:40:19.092Z,11.73
2022-09-26T05:45:50.799Z,11.74
2022-09-26T05:51:22.539Z,11.62
2022-09-26T05:56:54.231Z,11.81
2022-09-26T06:02:25.962Z,11.99
2022-09-26T06:07:57.654Z,12.11
2022-09-26T06:13:33.868Z,12.22
2022-09-26T06:19:05.724Z,12.35
2022-09-26T06:24:37.519Z,12.39
2022-09-26T06:30:09.158Z,12.36
2022-09-26T06:35:41.026Z,12.28
2022-09-26T06:41:12.702Z,12.4
2022-09-26T06:46:44.354Z,12.55
2022-09-26T06:52:16.069Z,12.51
2022-09-26T06:57:47.773Z,12.4
2022-09-26T07:03:19.509Z,12.47
2022-09-26T07:09:01.910Z,12.38
2022-09-26T07:14:29.371Z,12.48
2022-09-26T07:20:01.087Z,12.68
2022-09-26T07:25:32.785Z,12.87
2022-09-26T07:31:04.575Z,12.84
2022-09-26T07:36:36.487Z,13.11
2022-09-26T07:42:07.995Z,13.21
2022-09-26T07:47:39.720Z,13.08
2022-09-26T07:53:11.457Z,13.23
2022-09-26T07:58:43.166Z,13.56
2022-09-26T08:04:14.950Z,13.59
2022-09-26T08:09:46.600Z,13.79
2022-09-26T08:15:22.790Z,13.81
2022-09-26T08:20:54.628Z,13.9
2022-09-26T08:26:26.246Z,14.03
2022-09-26T08:31:57.943Z,14.01
2022-09-26T08:37:29.739Z,14.17
2022-09-26T08:43:01.410Z,14.35
2022-09-26T08:48:33.166Z,14.64
2022-09-26T08:54:05.039Z,14.7
2022-09-26T08:59:36.511Z,14.73
2022-09-26T09:05:08.400Z,14.89
2022-09-26T09:10:40.033Z,15.22
2022-09-26T09:16:20.221Z,15.39
2022-09-26T09:21:51.957Z,15.55
2022-09-26T09:27:53.350Z,15.72
2022-09-26T09:32:55.475Z,16.0
2022-09-26T09:38:27.146Z,16.07
2022-09-26T09:43:58.869Z,16.44
2022-09-26T09:49:30.552Z,16.8
2022-09-26T09:55:02.293Z,17.0
2022-09-26T10:00:34.014Z,17.15
2022-09-26T10:06:07.777Z,16.91
2022-09-26T10:11:37.477Z,16.77
2022-09-26T10:17:14.560Z,16.67
2022-09-26T10:22:46.245Z,17.41
2022-09-26T10:28:17.981Z,17.77
2022-09-26T10:33:49.693Z,17.5
2022-09-26T10:39:21.429Z,17.03
2022-09-26T10:44:53.168Z,17.04
2022-09-26T10:50:25.042Z,16.79
2022-09-26T10:55:56.646Z,16.82
2022-09-26T11:01:28.382Z,16.99
2022-09-26T11:07:00.019Z,16.83
2022-09-26T11:12:31.739Z,16.48
2022-09-26T11:18:09.846Z,16.76
2022-09-26T11:23:41.869Z,17.13
2022-09-26T11:29:13.367Z,17.66
2022-09-26T11:34:45.054Z,17.94
2022-09-26T11:40:16.799Z,18.13
2022-09-26T11:45:48.522Z,17.7
2022-09-26T11:51:20.729Z,17.41
2022-09-26T11:56:52.429Z,16.3
2022-09-26T12:02:24.277Z,15.99
2022-09-26T12:07:55.891Z,15.58
2022-09-26T12:13:27.572Z,15.34
2022-09-26T12:19:05.749Z,15.83
2022-09-26T12:24:37.579Z,16.35
2022-09-26T12:30:09.190Z,17.09
2022-09-26T12:35:40.918Z,17.65
2022-09-26T12:41:12.641Z,18.09
2022-09-26T12:46:44.417Z,17.73
2022-09-26T12:52:16.115Z,17.43
2022-09-26T12:57:47.827Z,17.87
2022-09-26T13:03:19.573Z,17.48
2022-09-26T13:08:51.395Z,17.2
2022-09-26T13:14:23.005Z,16.92
2022-09-26T13:19:59.094Z,16.42
2022-09-26T13:25:30.835Z,16.35
2022-09-26T13:31:02.713Z,16.32
2022-09-26T13:36:34.354Z,16.43
2022-09-26T13:42:05.990Z,16.9
2022-09-26T13:47:37.708Z,17.33
2022-09-26T13:53:09.508Z,17.23
2022-09-26T13:58:41.226Z,17.06
2022-09-26T14:04:12.928Z,16.75
2022-09-26T14:09:47.592Z,16.68
2022-09-26T14:15:16.334Z,16.52
2022-09-26T14:20:52.452Z,16.5
2022-09-26T14:26:24.174Z,16.42
2022-09-26T14:31:55.964Z,16.47
2022-09-26T14:37:27.678Z,16.58
2022-09-26T14:42:59.390Z,16.38
2022-09-26T14:48:31.106Z,16.19
2022-09-26T14:54:02.945Z,16.26
2022-09-26T14:59:34.591Z,16.11
2022-09-26T15:05:06.257Z,16.06
2022-09-26T15:10:37.972Z,16.08
2022-09-26T15:16:09.858Z,15.82
2022-09-26T15:21:45.822Z,15.57
2022-09-26T15:27:17.734Z,15.64
2022-09-26T15:32:49.362Z,15.65
2022-09-26T15:38:21.103Z,15.61
2022-09-26T15:43:52.829Z,15.61
2022-09-26T15:49:24.548Z,15.4
2022-09-26T15:54:56.295Z,15.52
2022-09-26T16:00:28.022Z,15.35
2022-09-26T16:05:59.729Z,15.37
2022-09-26T16:11:31.390Z,15.34
2022-09-26T16:17:03.176Z,15.34
2022-09-26T16:22:43.239Z,15.25
2022-09-26T16:28:15.032Z,15.37
2022-09-26T16:33:46.711Z,15.07
2022-09-26T16:39:18.449Z,15.0
2022-09-26T16:44:50.193Z,14.93
2022-09-26T16:50:21.869Z,14.95
2022-09-26T16:55:53.662Z,15.04
2022-09-26T17:01:25.459Z,14.96
2022-09-26T17:06:57.138Z,15.04
2022-09-26T17:12:28.847Z,15.06
2022-09-26T17:18:00.916Z,14.73
2022-09-26T17:23:40.801Z,14.87
2022-09-26T17:29:08.531Z,14.84
2022-09-26T17:34:40.274Z,14.99
2022-09-26T17:40:12.005Z,14.89
2022-09-26T17:45:43.821Z,14.84
2022-09-26T17:51:15.435Z,14.89
2022-09-26T17:56:47.227Z,15.05
2022-09-26T18:02:18.922Z,15.04
2022-09-26T18:07:50.638Z,15.07
2022-09-26T18:13:22.396Z,15.19
2022-09-26T18:18:54.030Z,15.14
2022-09-26T18:24:30.199Z,14.94
2022-09-26T18:30:01.914Z,15.02
2022-09-26T18:35:33.620Z,15.14
2022-09-26T18:41:05.446Z,15.08
2022-09-26T18:46:37.176Z,15.21
2022-09-26T18:52:08.828Z,15.05
2022-09-26T18:57:40.484Z,15.3
2022-09-26T19:03:12.296Z,15.25
2022-09-26T19:08:44.006Z,15.11
2022-09-26T19:14:15.821Z,14.92
2022-09-26T19:19:47.474Z,15.16
2022-09-26T19:25:23.568Z,15.14
2022-09-26T19:30:55.349Z,15.06
2022-09-26T19:36:27.029Z,14.81
2022-09-26T19:41:58.734Z,14.66
2022-09-26T19:47:30.491Z,14.73
2022-09-26T19:53:02.202Z,14.7
2022-09-26T19:58:33.901Z,14.73
2022-09-26T20:04:05.651Z,14.77
2022-09-26T20:09:37.370Z,14.83
2022-09-26T20:15:09.086Z,14.84
2022-09-26T20:20:40.797Z,14.73
2022-09-26T20:26:18.914Z,14.7
2022-09-26T20:31:50.615Z,14.57
2022-09-26T20:37:22.362Z,14.68
2022-09-26T20:42:54.127Z,14.57
2022-09-26T20:48:25.981Z,14.04
2022-09-26T20:53:57.553Z,13.83
2022-09-26T20:59:29.272Z,13.84
2022-09-26T21:05:00.989Z,13.65
2022-09-26T21:10:32.714Z,13.58
2022-09-26T21:16:04.438Z,13.64
2022-09-26T21:21:36.229Z,13.73
2022-09-26T21:27:12.265Z,13.52
2022-09-26T21:32:44.005Z,13.39
2022-09-26T21:38:15.769Z,13.1
2022-09-26T21:43:47.412Z,12.92
2022-09-26T21:49:19.282Z,12.88
2022-09-26T21:54:50.901Z,12.68
2022-09-26T22:00:22.621Z,12.54
2022-09-26T22:05:54.379Z,12.51
2022-09-26T22:11:26.041Z,12.3
2022-09-26T22:16:57.818Z,12.47
2022-09-26T22:22:29.481Z,12.36
2022-09-26T22:28:05.605Z,12.27
2022-09-26T22:33:37.382Z,12.11
2022-09-26T22:39:09.162Z,12.11
2022-09-26T22:44:40.777Z,12.03
2022-09-26T22:50:12.485Z,12.2
2022-09-26T22:55:44.226Z,12.16
2022-09-26T23:01:16.016Z,12.03
2022-09-26T23:06:47.654Z,11.94
2022-09-26T23:12:19.434Z,11.91
2022-09-26T23:17:51.082Z,11.99
2022-09-26T23:23:22.834Z,12.09
2022-09-26T23:28:59.165Z,11.99
2022-09-26T23:34:30.657Z,11.94
2022-09-26T23:40:02.405Z,11.98
2022-09-26T23:45:34.121Z,11.83
2022-09-26T23:51:05.893Z,12.13
2022-09-26T23:56:37.562Z,12.0
